sensor_id;sensor_type;location;lat;lon;timestamp;temperature;humidity
1175;DHT22;576;48.418;10.074;2023-01-10T00:01:40;21.50;60.90
1175;DHT22;576;48.418;10.074;2023-01-10T00:04:08;21.50;61.00
1175;DHT22;576;48.418;10.074;2023-01-10T00:06:37;21.50;61.00
1175;DHT22;576;48.418;10.074;2023-01-10T00:09:06;21.50;61.00
1175;DHT22;576;48.418;10.074;2023-01-10T00:11:34;21.50;61.00
1175;DHT22;576;48.418;10.074;2023-01-10T00:14:20;21.50;60.60
1175;DHT22;576;48.418;10.074;2023-01-10T00:16:48;21.50;60.90
1175;DHT22;576;48.418;10.074;2023-01-10T00:19:16;21.50;60.60
1175;DHT22;576;48.418;10.074;2023-01-10T00:21:44;21.50;60.90
1175;DHT22;576;48.418;10.074;2023-01-10T00:24:14;21.60;60.60
1175;DHT22;576;48.418;10.074;2023-01-10T00:26:47;21.60;60.80
1175;DHT22;576;48.418;10.074;2023-01-10T00:29:18;21.60;60.80
1175;DHT22;576;48.418;10.074;2023-01-10T00:31:47;21.60;60.60
1175;DHT22;576;48.418;10.074;2023-01-10T00:34:16;21.60;60.60
1175;DHT22;576;48.418;10.074;2023-01-10T00:36:44;21.60;60.20
1175;DHT22;576;48.418;10.074;2023-01-10T00:39:15;21.60;60.60
1175;DHT22;576;48.418;10.074;2023-01-10T00:41:45;21.60;60.60
1175;DHT22;576;48.418;10.074;2023-01-10T00:44:31;21.60;60.60
1175;DHT22;576;48.418;10.074;2023-01-10T00:46:59;21.60;60.50
1175;DHT22;576;48.418;10.074;2023-01-10T00:49:27;21.60;60.60
1175;DHT22;576;48.418;10.074;2023-01-10T00:51:55;21.60;60.70
1175;DHT22;576;48.418;10.074;2023-01-10T00:54:26;21.60;60.70
1175;DHT22;576;48.418;10.074;2023-01-10T00:56:55;21.60;60.70
1175;DHT22;576;48.418;10.074;2023-01-10T00:59:23;21.50;60.70
1175;DHT22;576;48.418;10.074;2023-01-10T01:01:51;21.50;60.70
1175;DHT22;576;48.418;10.074;2023-01-10T01:04:20;21.50;60.70
1175;DHT22;576;48.418;10.074;2023-01-10T01:06:48;21.50;60.70
1175;DHT22;576;48.418;10.074;2023-01-10T01:09:17;21.50;60.70
1175;DHT22;576;48.418;10.074;2023-01-10T01:11:46;21.50;60.70
1175;DHT22;576;48.418;10.074;2023-01-10T01:14:15;21.40;60.70
1175;DHT22;576;48.418;10.074;2023-01-10T01:16:43;21.40;60.70
1175;DHT22;576;48.418;10.074;2023-01-10T01:19:11;21.40;60.80
1175;DHT22;576;48.418;10.074;2023-01-10T01:21:39;21.40;60.70
1175;DHT22;576;48.418;10.074;2023-01-10T01:24:09;21.40;60.80
1175;DHT22;576;48.418;10.074;2023-01-10T01:26:37;21.40;60.70
1175;DHT22;576;48.418;10.074;2023-01-10T01:29:09;21.40;60.70
1175;DHT22;576;48.418;10.074;2023-01-10T01:31:38;21.40;60.70
1175;DHT22;576;48.418;10.074;2023-01-10T01:34:06;21.40;60.70
1175;DHT22;576;48.418;10.074;2023-01-10T01:36:34;21.50;60.60
1175;DHT22;576;48.418;10.074;2023-01-10T01:39:02;21.50;60.60
1175;DHT22;576;48.418;10.074;2023-01-10T01:41:32;21.50;60.50
1175;DHT22;576;48.418;10.074;2023-01-10T01:44:19;21.50;60.50
1175;DHT22;576;48.418;10.074;2023-01-10T01:46:52;21.50;60.40
1175;DHT22;576;48.418;10.074;2023-01-10T01:49:23;21.50;60.40
1175;DHT22;576;48.418;10.074;2023-01-10T01:51:57;21.50;60.40
1175;DHT22;576;48.418;10.074;2023-01-10T01:54:27;21.50;60.40
1175;DHT22;576;48.418;10.074;2023-01-10T01:56:59;21.50;60.30
1175;DHT22;576;48.418;10.074;2023-01-10T01:59:32;21.50;60.30
1175;DHT22;576;48.418;10.074;2023-01-10T02:02:06;21.60;60.30
1175;DHT22;576;48.418;10.074;2023-01-10T02:04:39;21.60;60.20
1175;DHT22;576;48.418;10.074;2023-01-10T02:07:09;21.60;60.20
1175;DHT22;576;48.418;10.074;2023-01-10T02:09:42;21.60;60.20
1175;DHT22;576;48.418;10.074;2023-01-10T02:12:13;21.60;60.20
1175;DHT22;576;48.418;10.074;2023-01-10T02:14:44;21.50;59.90
1175;DHT22;576;48.418;10.074;2023-01-10T02:17:14;21.50;60.20
1175;DHT22;576;48.418;10.074;2023-01-10T02:19:49;21.50;60.20
1175;DHT22;576;48.418;10.074;2023-01-10T02:22:47;21.50;60.20
1175;DHT22;576;48.418;10.074;2023-01-10T02:31:36;21.50;60.20
1175;DHT22;576;48.418;10.074;2023-01-10T02:34:14;21.50;60.20
1175;DHT22;576;48.418;10.074;2023-01-10T02:36:52;21.50;60.20
1175;DHT22;576;48.418;10.074;2023-01-10T02:39:29;21.50;60.20
1175;DHT22;576;48.418;10.074;2023-01-10T02:42:03;21.50;60.10
1175;DHT22;576;48.418;10.074;2023-01-10T02:44:38;21.50;60.10
1175;DHT22;576;48.418;10.074;2023-01-10T02:47:09;21.50;60.20
1175;DHT22;576;48.418;10.074;2023-01-10T02:49:43;21.50;60.20
1175;DHT22;576;48.418;10.074;2023-01-10T02:52:13;21.50;60.20
1175;DHT22;576;48.418;10.074;2023-01-10T02:54:42;21.50;60.10
1175;DHT22;576;48.418;10.074;2023-01-10T02:57:30;21.50;60.20
1175;DHT22;576;48.418;10.074;2023-01-10T03:00:10;21.50;60.20
1175;DHT22;576;48.418;10.074;2023-01-10T03:03:03;21.50;60.10
1175;DHT22;576;48.418;10.074;2023-01-10T03:05:48;21.50;60.10
1175;DHT22;576;48.418;10.074;2023-01-10T03:08:25;21.50;60.10
1175;DHT22;576;48.418;10.074;2023-01-10T03:10:58;21.50;59.80
1175;DHT22;576;48.418;10.074;2023-01-10T03:13:33;21.40;60.10
1175;DHT22;576;48.418;10.074;2023-01-10T03:16:07;21.40;60.00
1175;DHT22;576;48.418;10.074;2023-01-10T03:18:42;21.40;60.10
1175;DHT22;576;48.418;10.074;2023-01-10T03:21:13;21.40;60.00
1175;DHT22;576;48.418;10.074;2023-01-10T03:23:45;21.40;59.80
1175;DHT22;576;48.418;10.074;2023-01-10T03:26:14;21.40;60.00
1175;DHT22;576;48.418;10.074;2023-01-10T03:28:47;21.40;59.90
1175;DHT22;576;48.418;10.074;2023-01-10T03:31:20;21.40;60.00
1175;DHT22;576;48.418;10.074;2023-01-10T03:33:49;21.40;59.90
1175;DHT22;576;48.418;10.074;2023-01-10T03:36:26;21.40;59.80
1175;DHT22;576;48.418;10.074;2023-01-10T03:39:01;21.40;59.90
1175;DHT22;576;48.418;10.074;2023-01-10T03:41:35;21.40;59.90
1175;DHT22;576;48.418;10.074;2023-01-10T03:44:12;21.40;59.90
1175;DHT22;576;48.418;10.074;2023-01-10T03:47:01;21.40;59.90
1175;DHT22;576;48.418;10.074;2023-01-10T03:49:32;21.40;59.90
1175;DHT22;576;48.418;10.074;2023-01-10T03:52:04;21.40;59.90
1175;DHT22;576;48.418;10.074;2023-01-10T03:54:32;21.40;59.90
1175;DHT22;576;48.418;10.074;2023-01-10T03:57:00;21.40;59.90
1175;DHT22;576;48.418;10.074;2023-01-10T03:59:29;21.40;59.90
1175;DHT22;576;48.418;10.074;2023-01-10T04:01:57;21.40;59.90
1175;DHT22;576;48.418;10.074;2023-01-10T04:04:25;21.40;59.90
1175;DHT22;576;48.418;10.074;2023-01-10T04:06:54;21.40;59.90
1175;DHT22;576;48.418;10.074;2023-01-10T04:09:23;21.40;59.90
1175;DHT22;576;48.418;10.074;2023-01-10T04:11:51;21.40;59.90
1175;DHT22;576;48.418;10.074;2023-01-10T04:14:19;21.40;59.80
1175;DHT22;576;48.418;10.074;2023-01-10T04:16:48;21.40;59.80
1175;DHT22;576;48.418;10.074;2023-01-10T04:19:16;21.40;59.80
1175;DHT22;576;48.418;10.074;2023-01-10T04:21:44;21.40;59.70
1175;DHT22;576;48.418;10.074;2023-01-10T04:24:12;21.40;59.80
1175;DHT22;576;48.418;10.074;2023-01-10T04:26:41;21.40;59.80
1175;DHT22;576;48.418;10.074;2023-01-10T04:29:10;21.40;59.80
1175;DHT22;576;48.418;10.074;2023-01-10T04:31:38;21.40;59.80
1175;DHT22;576;48.418;10.074;2023-01-10T04:34:07;21.40;59.80
1175;DHT22;576;48.418;10.074;2023-01-10T04:36:35;21.40;59.80
1175;DHT22;576;48.418;10.074;2023-01-10T04:39:04;21.40;59.80
1175;DHT22;576;48.418;10.074;2023-01-10T04:41:32;21.40;59.80
1175;DHT22;576;48.418;10.074;2023-01-10T04:44:02;21.40;59.70
1175;DHT22;576;48.418;10.074;2023-01-10T04:46:31;21.40;59.70
1175;DHT22;576;48.418;10.074;2023-01-10T04:48:59;21.40;59.70
1175;DHT22;576;48.418;10.074;2023-01-10T04:51:27;21.40;59.70
1175;DHT22;576;48.418;10.074;2023-01-10T04:53:56;21.40;59.70
1175;DHT22;576;48.418;10.074;2023-01-10T04:56:24;21.40;59.70
1175;DHT22;576;48.418;10.074;2023-01-10T04:58:52;21.40;59.70
1175;DHT22;576;48.418;10.074;2023-01-10T05:01:23;21.40;59.50
1175;DHT22;576;48.418;10.074;2023-01-10T05:03:53;21.40;59.60
1175;DHT22;576;48.418;10.074;2023-01-10T05:06:23;21.40;59.60
1175;DHT22;576;48.418;10.074;2023-01-10T05:08:52;21.40;59.60
1175;DHT22;576;48.418;10.074;2023-01-10T05:11:20;21.40;59.60
1175;DHT22;576;48.418;10.074;2023-01-10T05:13:49;21.40;59.50
1175;DHT22;576;48.418;10.074;2023-01-10T05:16:17;21.40;59.50
1175;DHT22;576;48.418;10.074;2023-01-10T05:18:46;21.40;59.50
1175;DHT22;576;48.418;10.074;2023-01-10T05:21:16;21.40;59.50
1175;DHT22;576;48.418;10.074;2023-01-10T05:23:45;21.40;59.50
1175;DHT22;576;48.418;10.074;2023-01-10T05:26:15;21.40;59.50
1175;DHT22;576;48.418;10.074;2023-01-10T05:28:44;21.40;59.50
1175;DHT22;576;48.418;10.074;2023-01-10T05:31:14;21.40;59.40
1175;DHT22;576;48.418;10.074;2023-01-10T05:33:45;21.40;59.40
1175;DHT22;576;48.418;10.074;2023-01-10T05:36:14;21.40;59.40
1175;DHT22;576;48.418;10.074;2023-01-10T05:38:42;21.40;59.40
1175;DHT22;576;48.418;10.074;2023-01-10T05:41:10;21.40;59.40
1175;DHT22;576;48.418;10.074;2023-01-10T05:43:39;21.40;59.40
1175;DHT22;576;48.418;10.074;2023-01-10T05:46:07;21.40;59.40
1175;DHT22;576;48.418;10.074;2023-01-10T05:48:36;21.50;59.40
1175;DHT22;576;48.418;10.074;2023-01-10T05:51:06;21.50;59.50
1175;DHT22;576;48.418;10.074;2023-01-10T05:53:34;21.50;59.50
1175;DHT22;576;48.418;10.074;2023-01-10T05:56:03;21.50;59.60
1175;DHT22;576;48.418;10.074;2023-01-10T05:58:33;21.50;59.80
1175;DHT22;576;48.418;10.074;2023-01-10T06:01:01;21.50;60.00
1175;DHT22;576;48.418;10.074;2023-01-10T06:03:29;21.50;60.10
1175;DHT22;576;48.418;10.074;2023-01-10T06:05:58;21.50;60.20
1175;DHT22;576;48.418;10.074;2023-01-10T06:08:27;21.50;60.30
1175;DHT22;576;48.418;10.074;2023-01-10T06:10:55;21.50;60.30
1175;DHT22;576;48.418;10.074;2023-01-10T06:13:23;21.40;60.40
1175;DHT22;576;48.418;10.074;2023-01-10T06:15:51;21.40;60.50
1175;DHT22;576;48.418;10.074;2023-01-10T06:18:20;21.40;60.70
1175;DHT22;576;48.418;10.074;2023-01-10T06:20:49;21.40;60.80
1175;DHT22;576;48.418;10.074;2023-01-10T06:23:17;21.40;60.90
1175;DHT22;576;48.418;10.074;2023-01-10T06:25:47;21.40;61.00
1175;DHT22;576;48.418;10.074;2023-01-10T06:28:15;21.30;61.10
1175;DHT22;576;48.418;10.074;2023-01-10T06:30:43;21.30;60.90
1175;DHT22;576;48.418;10.074;2023-01-10T06:33:11;21.30;60.90
1175;DHT22;576;48.418;10.074;2023-01-10T06:35:40;21.30;61.00
1175;DHT22;576;48.418;10.074;2023-01-10T06:38:09;21.30;61.20
1175;DHT22;576;48.418;10.074;2023-01-10T06:40:37;21.30;61.20
1175;DHT22;576;48.418;10.074;2023-01-10T06:43:07;21.30;61.20
1175;DHT22;576;48.418;10.074;2023-01-10T06:45:35;21.30;61.30
1175;DHT22;576;48.418;10.074;2023-01-10T06:48:03;21.30;61.20
1175;DHT22;576;48.418;10.074;2023-01-10T06:50:32;21.30;61.30
1175;DHT22;576;48.418;10.074;2023-01-10T06:53:02;21.30;61.30
1175;DHT22;576;48.418;10.074;2023-01-10T06:55:30;21.30;61.30
1175;DHT22;576;48.418;10.074;2023-01-10T06:58:00;21.40;61.00
1175;DHT22;576;48.418;10.074;2023-01-10T07:00:30;21.40;60.80
1175;DHT22;576;48.418;10.074;2023-01-10T07:02:59;21.40;60.60
1175;DHT22;576;48.418;10.074;2023-01-10T07:05:28;21.40;60.80
1175;DHT22;576;48.418;10.074;2023-01-10T07:07:57;21.40;60.80
1175;DHT22;576;48.418;10.074;2023-01-10T07:10:27;21.40;60.00
1175;DHT22;576;48.418;10.074;2023-01-10T07:12:56;21.40;60.10
1175;DHT22;576;48.418;10.074;2023-01-10T07:15:25;21.40;59.50
1175;DHT22;576;48.418;10.074;2023-01-10T07:17:56;21.40;59.80
1175;DHT22;576;48.418;10.074;2023-01-10T07:20:25;21.40;60.00
1175;DHT22;576;48.418;10.074;2023-01-10T07:22:54;21.40;59.40
1175;DHT22;576;48.418;10.074;2023-01-10T07:25:23;21.40;59.40
1175;DHT22;576;48.418;10.074;2023-01-10T07:27:52;21.30;59.20
1175;DHT22;576;48.418;10.074;2023-01-10T07:30:21;21.30;59.20
1175;DHT22;576;48.418;10.074;2023-01-10T07:32:56;21.30;59.30
1175;DHT22;576;48.418;10.074;2023-01-10T07:35:26;21.30;59.00
1175;DHT22;576;48.418;10.074;2023-01-10T07:37:57;21.20;59.20
1175;DHT22;576;48.418;10.074;2023-01-10T07:40:26;21.20;59.10
1175;DHT22;576;48.418;10.074;2023-01-10T07:42:58;21.20;58.90
1175;DHT22;576;48.418;10.074;2023-01-10T07:45:28;21.20;58.90
1175;DHT22;576;48.418;10.074;2023-01-10T07:47:59;21.10;59.60
1175;DHT22;576;48.418;10.074;2023-01-10T07:50:29;21.20;59.60
1175;DHT22;576;48.418;10.074;2023-01-10T07:52:58;21.20;59.60
1175;DHT22;576;48.418;10.074;2023-01-10T07:55:28;21.20;59.70
1175;DHT22;576;48.418;10.074;2023-01-10T07:57:56;21.20;59.90
1175;DHT22;576;48.418;10.074;2023-01-10T08:00:27;21.20;60.00
1175;DHT22;576;48.418;10.074;2023-01-10T08:02:55;21.20;59.90
1175;DHT22;576;48.418;10.074;2023-01-10T08:05:25;21.20;60.00
1175;DHT22;576;48.418;10.074;2023-01-10T08:07:53;21.30;60.00
1175;DHT22;576;48.418;10.074;2023-01-10T08:10:25;21.30;60.00
1175;DHT22;576;48.418;10.074;2023-01-10T08:12:54;21.30;60.00
1175;DHT22;576;48.418;10.074;2023-01-10T08:15:23;21.40;59.90
1175;DHT22;576;48.418;10.074;2023-01-10T08:17:57;21.40;59.40
1175;DHT22;576;48.418;10.074;2023-01-10T08:20:32;21.40;59.30
1175;DHT22;576;48.418;10.074;2023-01-10T08:23:00;21.40;59.80
1175;DHT22;576;48.418;10.074;2023-01-10T08:25:28;21.40;59.40
1175;DHT22;576;48.418;10.074;2023-01-10T08:27:56;21.50;59.40
1175;DHT22;576;48.418;10.074;2023-01-10T08:30:24;21.50;59.70
1175;DHT22;576;48.418;10.074;2023-01-10T08:32:52;21.50;59.00
1175;DHT22;576;48.418;10.074;2023-01-10T08:35:21;21.40;59.50
1175;DHT22;576;48.418;10.074;2023-01-10T08:37:50;21.50;60.00
1175;DHT22;576;48.418;10.074;2023-01-10T08:40:18;21.40;60.00
1175;DHT22;576;48.418;10.074;2023-01-10T08:42:46;21.40;60.10
1175;DHT22;576;48.418;10.074;2023-01-10T08:45:15;21.40;60.10
1175;DHT22;576;48.418;10.074;2023-01-10T08:47:43;21.40;60.20
1175;DHT22;576;48.418;10.074;2023-01-10T08:50:11;21.40;60.20
1175;DHT22;576;48.418;10.074;2023-01-10T08:52:39;21.40;60.30
1175;DHT22;576;48.418;10.074;2023-01-10T08:55:09;21.40;60.40
1175;DHT22;576;48.418;10.074;2023-01-10T08:57:37;21.40;60.40
1175;DHT22;576;48.418;10.074;2023-01-10T09:00:07;21.30;60.50
1175;DHT22;576;48.418;10.074;2023-01-10T09:02:35;21.30;60.50
1175;DHT22;576;48.418;10.074;2023-01-10T09:05:04;21.30;60.40
1175;DHT22;576;48.418;10.074;2023-01-10T09:07:47;21.30;60.50
1175;DHT22;576;48.418;10.074;2023-01-10T09:10:17;21.30;60.60
1175;DHT22;576;48.418;10.074;2023-01-10T09:12:47;21.30;60.60
1175;DHT22;576;48.418;10.074;2023-01-10T09:15:27;21.30;60.70
1175;DHT22;576;48.418;10.074;2023-01-10T09:17:57;21.30;60.60
1175;DHT22;576;48.418;10.074;2023-01-10T09:20:27;21.30;60.70
1175;DHT22;576;48.418;10.074;2023-01-10T09:22:56;21.40;60.70
1175;DHT22;576;48.418;10.074;2023-01-10T09:25:26;21.40;60.30
1175;DHT22;576;48.418;10.074;2023-01-10T09:27:55;21.40;60.50
1175;DHT22;576;48.418;10.074;2023-01-10T09:30:24;21.40;60.30
1175;DHT22;576;48.418;10.074;2023-01-10T09:32:54;21.40;60.10
1175;DHT22;576;48.418;10.074;2023-01-10T09:35:23;21.50;60.40
1175;DHT22;576;48.418;10.074;2023-01-10T09:37:53;21.50;59.70
1175;DHT22;576;48.418;10.074;2023-01-10T09:40:35;21.50;60.00
1175;DHT22;576;48.418;10.074;2023-01-10T09:43:13;21.50;59.80
1175;DHT22;576;48.418;10.074;2023-01-10T09:45:50;20.40;53.90
1175;DHT22;576;48.418;10.074;2023-01-10T09:48:23;19.20;56.30
1175;DHT22;576;48.418;10.074;2023-01-10T09:51:04;18.20;57.10
1175;DHT22;576;48.418;10.074;2023-01-10T09:53:41;17.10;57.10
1175;DHT22;576;48.418;10.074;2023-01-10T09:56:12;16.10;61.40
1175;DHT22;576;48.418;10.074;2023-01-10T09:58:41;15.50;60.20
1175;DHT22;576;48.418;10.074;2023-01-10T10:01:14;14.80;66.00
1175;DHT22;576;48.418;10.074;2023-01-10T10:03:50;15.00;70.90
1175;DHT22;576;48.418;10.074;2023-01-10T10:06:21;15.60;70.50
1175;DHT22;576;48.418;10.074;2023-01-10T10:08:51;16.50;69.30
1175;DHT22;576;48.418;10.074;2023-01-10T10:11:43;17.20;67.70
1175;DHT22;576;48.418;10.074;2023-01-10T10:14:23;18.00;66.50
1175;DHT22;576;48.418;10.074;2023-01-10T10:17:08;18.60;65.40
1175;DHT22;576;48.418;10.074;2023-01-10T10:19:51;19.20;64.10
1175;DHT22;576;48.418;10.074;2023-01-10T10:22:29;19.60;63.60
1175;DHT22;576;48.418;10.074;2023-01-10T10:25:08;20.00;62.70
1175;DHT22;576;48.418;10.074;2023-01-10T10:27:52;20.20;62.40
1175;DHT22;576;48.418;10.074;2023-01-10T10:30:35;20.50;61.90
1175;DHT22;576;48.418;10.074;2023-01-10T10:33:26;20.70;61.40
1175;DHT22;576;48.418;10.074;2023-01-10T10:36:03;20.90;61.10
1175;DHT22;576;48.418;10.074;2023-01-10T10:38:35;21.00;60.60
1175;DHT22;576;48.418;10.074;2023-01-10T10:41:14;21.20;60.10
1175;DHT22;576;48.418;10.074;2023-01-10T10:43:45;21.30;59.40
1175;DHT22;576;48.418;10.074;2023-01-10T10:46:15;21.30;59.60
1175;DHT22;576;48.418;10.074;2023-01-10T10:48:50;21.30;59.10
1175;DHT22;576;48.418;10.074;2023-01-10T10:51:25;21.30;59.30
1175;DHT22;576;48.418;10.074;2023-01-10T10:53:55;21.30;59.20
1175;DHT22;576;48.418;10.074;2023-01-10T10:56:25;21.30;58.80
1175;DHT22;576;48.418;10.074;2023-01-10T10:58:58;21.40;58.90
1175;DHT22;576;48.418;10.074;2023-01-10T11:01:26;21.30;58.60
1175;DHT22;576;48.418;10.074;2023-01-10T11:03:57;21.30;58.70
1175;DHT22;576;48.418;10.074;2023-01-10T11:06:29;21.40;58.70
1175;DHT22;576;48.418;10.074;2023-01-10T11:09:02;21.40;58.70
1175;DHT22;576;48.418;10.074;2023-01-10T11:11:33;21.40;58.90
1175;DHT22;576;48.418;10.074;2023-01-10T11:14:05;21.40;58.80
1175;DHT22;576;48.418;10.074;2023-01-10T11:16:36;21.40;58.90
1175;DHT22;576;48.418;10.074;2023-01-10T11:19:17;21.40;58.80
1175;DHT22;576;48.418;10.074;2023-01-10T11:21:49;21.50;59.00
1175;DHT22;576;48.418;10.074;2023-01-10T11:24:22;21.50;59.10
1175;DHT22;576;48.418;10.074;2023-01-10T11:26:51;21.50;59.10
1175;DHT22;576;48.418;10.074;2023-01-10T11:29:24;21.60;59.00
1175;DHT22;576;48.418;10.074;2023-01-10T11:31:54;21.60;58.50
1175;DHT22;576;48.418;10.074;2023-01-10T11:34:25;21.70;58.40
1175;DHT22;576;48.418;10.074;2023-01-10T11:36:58;21.80;58.30
1175;DHT22;576;48.418;10.074;2023-01-10T11:39:28;21.90;58.30
1175;DHT22;576;48.418;10.074;2023-01-10T11:41:57;21.90;57.70
1175;DHT22;576;48.418;10.074;2023-01-10T11:44:46;22.00;57.70
1175;DHT22;576;48.418;10.074;2023-01-10T11:47:15;22.00;57.60
1175;DHT22;576;48.418;10.074;2023-01-10T11:49:48;22.00;56.90
1175;DHT22;576;48.418;10.074;2023-01-10T11:52:21;22.00;56.90
1175;DHT22;576;48.418;10.074;2023-01-10T11:54:50;21.90;56.50
1175;DHT22;576;48.418;10.074;2023-01-10T11:57:21;21.90;57.00
1175;DHT22;576;48.418;10.074;2023-01-10T11:59:54;21.80;56.90
1175;DHT22;576;48.418;10.074;2023-01-10T12:02:25;21.80;56.80
1175;DHT22;576;48.418;10.074;2023-01-10T12:04:57;21.70;57.00
1175;DHT22;576;48.418;10.074;2023-01-10T12:07:27;21.70;57.00
1175;DHT22;576;48.418;10.074;2023-01-10T12:09:57;21.70;57.30
1175;DHT22;576;48.418;10.074;2023-01-10T12:12:27;21.70;57.10
1175;DHT22;576;48.418;10.074;2023-01-10T12:14:59;21.60;57.20
1175;DHT22;576;48.418;10.074;2023-01-10T12:17:30;21.60;57.10
1175;DHT22;576;48.418;10.074;2023-01-10T12:20:01;21.60;56.90
1175;DHT22;576;48.418;10.074;2023-01-10T12:22:32;21.60;56.90
1175;DHT22;576;48.418;10.074;2023-01-10T12:25:04;21.60;57.20
1175;DHT22;576;48.418;10.074;2023-01-10T12:27:35;21.50;57.10
1175;DHT22;576;48.418;10.074;2023-01-10T12:30:12;21.50;57.30
1175;DHT22;576;48.418;10.074;2023-01-10T12:32:45;21.50;57.30
1175;DHT22;576;48.418;10.074;2023-01-10T12:35:17;21.50;57.30
1175;DHT22;576;48.418;10.074;2023-01-10T12:37:52;21.50;57.40
1175;DHT22;576;48.418;10.074;2023-01-10T12:40:36;21.50;57.40
1175;DHT22;576;48.418;10.074;2023-01-10T12:43:14;21.60;57.30
1175;DHT22;576;48.418;10.074;2023-01-10T12:46:09;21.60;57.20
1175;DHT22;576;48.418;10.074;2023-01-10T12:49:05;21.60;57.20
1175;DHT22;576;48.418;10.074;2023-01-10T12:51:35;21.70;57.20
1175;DHT22;576;48.418;10.074;2023-01-10T12:54:10;21.70;57.30
1175;DHT22;576;48.418;10.074;2023-01-10T12:56:40;21.80;57.30
1175;DHT22;576;48.418;10.074;2023-01-10T12:59:14;21.80;57.30
1175;DHT22;576;48.418;10.074;2023-01-10T13:02:06;21.90;57.20
1175;DHT22;576;48.418;10.074;2023-01-10T13:04:36;21.90;57.30
1175;DHT22;576;48.418;10.074;2023-01-10T13:07:05;21.90;57.30
1175;DHT22;576;48.418;10.074;2023-01-10T13:09:33;21.80;57.20
1175;DHT22;576;48.418;10.074;2023-01-10T13:12:07;21.80;57.40
1175;DHT22;576;48.418;10.074;2023-01-10T13:14:42;21.80;57.10
1175;DHT22;576;48.418;10.074;2023-01-10T13:17:25;21.80;57.30
1175;DHT22;576;48.418;10.074;2023-01-10T13:22:59;21.70;57.00
1175;DHT22;576;48.418;10.074;2023-01-10T13:25:33;21.70;57.10
1175;DHT22;576;48.418;10.074;2023-01-10T13:28:06;21.70;57.20
1175;DHT22;576;48.418;10.074;2023-01-10T13:30:37;21.60;57.00
1175;DHT22;576;48.418;10.074;2023-01-10T13:33:24;21.60;57.40
1175;DHT22;576;48.418;10.074;2023-01-10T13:35:56;21.60;57.50
1175;DHT22;576;48.418;10.074;2023-01-10T13:38:34;21.60;57.90
1175;DHT22;576;48.418;10.074;2023-01-10T13:41:06;21.60;57.80
1175;DHT22;576;48.418;10.074;2023-01-10T13:44:04;21.60;58.10
1175;DHT22;576;48.418;10.074;2023-01-10T13:46:45;21.60;58.60
1175;DHT22;576;48.418;10.074;2023-01-10T13:49:26;21.60;58.90
1175;DHT22;576;48.418;10.074;2023-01-10T13:52:31;21.70;58.50
1175;DHT22;576;48.418;10.074;2023-01-10T13:55:01;21.70;58.40
1175;DHT22;576;48.418;10.074;2023-01-10T13:57:55;21.70;58.60
1175;DHT22;576;48.418;10.074;2023-01-10T14:00:27;21.80;58.80
1175;DHT22;576;48.418;10.074;2023-01-10T14:03:50;21.80;58.30
1175;DHT22;576;48.418;10.074;2023-01-10T14:06:38;21.90;58.70
1175;DHT22;576;48.418;10.074;2023-01-10T14:09:29;22.00;58.60
1175;DHT22;576;48.418;10.074;2023-01-10T14:12:00;22.10;58.70
1175;DHT22;576;48.418;10.074;2023-01-10T14:14:31;22.10;59.00
1175;DHT22;576;48.418;10.074;2023-01-10T14:17:11;22.20;59.00
1175;DHT22;576;48.418;10.074;2023-01-10T14:19:42;22.20;58.80
1175;DHT22;576;48.418;10.074;2023-01-10T14:22:24;22.20;59.10
1175;DHT22;576;48.418;10.074;2023-01-10T14:24:54;22.30;59.10
1175;DHT22;576;48.418;10.074;2023-01-10T14:27:23;22.30;59.00
1175;DHT22;576;48.418;10.074;2023-01-10T14:29:55;22.30;59.10
1175;DHT22;576;48.418;10.074;2023-01-10T14:32:30;22.30;59.20
1175;DHT22;576;48.418;10.074;2023-01-10T14:35:02;22.30;59.30
1175;DHT22;576;48.418;10.074;2023-01-10T14:37:38;22.20;58.90
1175;DHT22;576;48.418;10.074;2023-01-10T14:40:17;22.20;59.10
1175;DHT22;576;48.418;10.074;2023-01-10T14:42:47;22.20;59.10
1175;DHT22;576;48.418;10.074;2023-01-10T14:45:30;22.20;59.20
1175;DHT22;576;48.418;10.074;2023-01-10T14:48:18;22.20;59.30
1175;DHT22;576;48.418;10.074;2023-01-10T14:50:51;22.20;59.50
1175;DHT22;576;48.418;10.074;2023-01-10T14:53:28;22.20;59.40
1175;DHT22;576;48.418;10.074;2023-01-10T14:55:57;22.20;59.60
1175;DHT22;576;48.418;10.074;2023-01-10T14:58:25;22.30;59.60
1175;DHT22;576;48.418;10.074;2023-01-10T15:00:55;22.30;59.60
1175;DHT22;576;48.418;10.074;2023-01-10T15:03:24;22.30;59.60
1175;DHT22;576;48.418;10.074;2023-01-10T15:05:56;22.30;59.70
1175;DHT22;576;48.418;10.074;2023-01-10T15:08:28;22.30;59.70
1175;DHT22;576;48.418;10.074;2023-01-10T15:11:00;22.30;59.80
1175;DHT22;576;48.418;10.074;2023-01-10T15:13:35;22.30;59.90
1175;DHT22;576;48.418;10.074;2023-01-10T15:16:04;22.30;59.90
1175;DHT22;576;48.418;10.074;2023-01-10T15:18:37;22.30;59.90
1175;DHT22;576;48.418;10.074;2023-01-10T15:21:07;22.30;59.90
1175;DHT22;576;48.418;10.074;2023-01-10T15:23:41;22.40;59.90
1175;DHT22;576;48.418;10.074;2023-01-10T15:26:11;22.40;60.00
1175;DHT22;576;48.418;10.074;2023-01-10T15:28:42;22.40;60.00
1175;DHT22;576;48.418;10.074;2023-01-10T15:31:15;22.50;60.00
1175;DHT22;576;48.418;10.074;2023-01-10T15:33:45;22.50;60.00
1175;DHT22;576;48.418;10.074;2023-01-10T15:36:25;22.50;60.00
1175;DHT22;576;48.418;10.074;2023-01-10T15:38:55;22.50;60.00
1175;DHT22;576;48.418;10.074;2023-01-10T15:41:23;22.60;60.00
1175;DHT22;576;48.418;10.074;2023-01-10T15:43:51;22.60;60.10
1175;DHT22;576;48.418;10.074;2023-01-10T15:46:22;22.60;60.10
1175;DHT22;576;48.418;10.074;2023-01-10T15:48:53;22.60;60.20
1175;DHT22;576;48.418;10.074;2023-01-10T15:51:26;22.50;60.30
1175;DHT22;576;48.418;10.074;2023-01-10T15:53:59;22.50;60.30
1175;DHT22;576;48.418;10.074;2023-01-10T15:56:33;22.50;60.40
1175;DHT22;576;48.418;10.074;2023-01-10T15:59:05;22.50;60.40
1175;DHT22;576;48.418;10.074;2023-01-10T16:01:52;22.50;60.50
1175;DHT22;576;48.418;10.074;2023-01-10T16:04:21;22.50;60.60
1175;DHT22;576;48.418;10.074;2023-01-10T16:06:52;22.50;60.60
1175;DHT22;576;48.418;10.074;2023-01-10T16:09:23;22.50;60.70
1175;DHT22;576;48.418;10.074;2023-01-10T16:11:52;22.50;60.70
1175;DHT22;576;48.418;10.074;2023-01-10T16:14:37;22.50;60.90
1175;DHT22;576;48.418;10.074;2023-01-10T16:17:05;22.40;61.00
1175;DHT22;576;48.418;10.074;2023-01-10T16:19:33;22.40;61.00
1175;DHT22;576;48.418;10.074;2023-01-10T16:22:02;22.40;61.00
1175;DHT22;576;48.418;10.074;2023-01-10T16:24:34;22.40;61.00
1175;DHT22;576;48.418;10.074;2023-01-10T16:27:04;22.40;61.20
1175;DHT22;576;48.418;10.074;2023-01-10T16:29:32;22.40;61.30
1175;DHT22;576;48.418;10.074;2023-01-10T16:32:01;22.40;60.90
1175;DHT22;576;48.418;10.074;2023-01-10T16:34:29;22.40;60.10
1175;DHT22;576;48.418;10.074;2023-01-10T16:36:59;22.30;59.70
1175;DHT22;576;48.418;10.074;2023-01-10T16:39:27;22.30;59.60
1175;DHT22;576;48.418;10.074;2023-01-10T16:41:57;22.30;59.40
1175;DHT22;576;48.418;10.074;2023-01-10T16:44:39;22.20;59.40